»·PEaware :: N580DC KSLC-KDTA

N580DC :: KSLC-KDTA

FLIGHT INFORMATION

Flight Status: Arrived
Operator: Privately registered:
United States
More flights under this callsign
Pilot: Raphael S. (13144)
Aircraft: BEECH AIRCRAFT BARON
(BE58)
More flights by this aircraft type
Origin: KSLC Salt Lake City Intl
United States
Destination: KDTA Delta Mun
United States
More flights between these airports :: More routes between these airports
Route: +SLC4 TCH V32 STACO V257 DTA
File this flight plan on PilotEdge
Remarks:
Altitude:
(Current/Filed)
12,000ft
Speed:
(Current/Filed)
190kts
Departed: 15-Oct-18 04:10 PM
Arrived: 15-Oct-18 05:06 PM
Distance/Time
Traveled:
88nm/0:55
Distance/Time
To Go:
Arrived

Flight Plot

Page will automatically refresh every two minutes.

Flight plan parsing failed; only flown route is shown


Map Options




Map Legend


Flown Route
Filed Route
Departure Airport
Arrival Airport
Navaid (VOR, NDB)
Fix

Horizontal Profiles

Position Reports

Time Latitude Longitude Heading Altitude Ground
Speed
15-Oct-18 15:50 40.775030 -111.958999 359 4228ft 0kts
15-Oct-18 15:51 40.775030 -111.958999 359 4228ft 0kts
15-Oct-18 15:52 40.775030 -111.958999 359 4228ft 0kts
15-Oct-18 15:53 40.775030 -111.958999 359 4228ft 0kts
15-Oct-18 15:54 40.775030 -111.958999 359 4228ft 0kts
15-Oct-18 15:55 40.775030 -111.958999 359 4228ft 0kts
15-Oct-18 15:56 40.775030 -111.958999 359 4228ft 0kts
15-Oct-18 15:57 40.775030 -111.958999 358 4228ft 0kts
15-Oct-18 15:58 40.775030 -111.958999 358 4228ft 0kts
15-Oct-18 15:59 40.775030 -111.958999 358 4228ft 0kts
15-Oct-18 16:00 40.775030 -111.958999 358 4228ft 0kts
15-Oct-18 16:01 40.775030 -111.958999 358 4228ft 0kts
15-Oct-18 16:02 40.775030 -111.958999 358 4228ft 0kts
15-Oct-18 16:03 40.775030 -111.958999 358 4228ft 0kts
15-Oct-18 16:04 40.775030 -111.958999 358 4228ft 0kts
15-Oct-18 16:05 40.775030 -111.958999 358 4228ft 0kts
15-Oct-18 16:06 40.775068 -111.959000 358 4228ft 1kts
15-Oct-18 16:07 40.775037 -111.959609 264 4228ft 0kts
15-Oct-18 16:08 40.775037 -111.959609 264 4228ft 0kts
15-Oct-18 16:09 40.775019 -111.959976 268 4228ft 5kts
15-Oct-18 16:10 40.773539 -111.960625 179 4228ft 2kts
15-Oct-18 16:11 40.772730 -111.960938 256 4228ft 0kts
15-Oct-18 16:12 40.777838 -111.962072 359 4228ft 89kts
15-Oct-18 16:13 40.806088 -111.972235 332 5104ft 116kts
15-Oct-18 16:14 40.834753 -111.994668 331 6117ft 124kts
15-Oct-18 16:15 40.863630 -112.020504 332 7106ft 128kts
15-Oct-18 16:16 40.893766 -112.047164 330 8011ft 133kts
15-Oct-18 16:17 40.924511 -112.074233 329 8888ft 135kts
15-Oct-18 16:18 40.952831 -112.106773 287 9710ft 143kts
15-Oct-18 16:19 40.946590 -112.160591 256 10429ft 151kts
15-Oct-18 16:20 40.927944 -112.207051 230 11303ft 141kts
15-Oct-18 16:21 40.905249 -112.249695 233 12026ft 144kts
15-Oct-18 16:22 40.882928 -112.294771 234 12686ft 148kts
15-Oct-18 16:23 40.860716 -112.340316 234 13288ft 149kts
15-Oct-18 16:24 40.837847 -112.387310 235 13771ft 154kts
15-Oct-18 16:25 40.807307 -112.416236 164 14107ft 149kts
15-Oct-18 16:26 40.762379 -112.408794 170 14012ft 171kts
15-Oct-18 16:27 40.714468 -112.405101 172 14018ft 175kts
15-Oct-18 16:28 40.665736 -112.402826 173 14017ft 176kts
15-Oct-18 16:29 40.616660 -112.401049 173 14017ft 177kts
15-Oct-18 16:30 40.567105 -112.399426 173 14017ft 178kts
15-Oct-18 16:31 40.517612 -112.397886 173 14017ft 178kts
15-Oct-18 16:32 40.468002 -112.396139 174 14017ft 179kts
15-Oct-18 16:33 40.418259 -112.394700 173 14017ft 179kts
15-Oct-18 16:34 40.368533 -112.393193 174 14017ft 179kts
15-Oct-18 16:35 40.320842 -112.407111 209 14019ft 187kts
15-Oct-18 16:36 40.266154 -112.437620 188 14016ft 182kts
15-Oct-18 16:37 40.224643 -112.446553 182 14015ft 181kts
15-Oct-18 16:38 40.185371 -112.444163 167 14021ft 176kts
15-Oct-18 16:39 40.136073 -112.440714 175 14023ft 179kts
15-Oct-18 16:40 40.085990 -112.442216 177 14022ft 181kts
15-Oct-18 16:41 40.035517 -112.445569 178 14022ft 182kts
15-Oct-18 16:42 39.985176 -112.449491 178 14020ft 182kts
15-Oct-18 16:43 39.934620 -112.453609 179 14007ft 182kts
15-Oct-18 16:44 39.884074 -112.457745 178 13993ft 182kts
15-Oct-18 16:45 39.833587 -112.461709 179 13981ft 182kts
15-Oct-18 16:46 39.783174 -112.465841 178 13980ft 182kts
15-Oct-18 16:47 39.732889 -112.470015 179 13981ft 182kts
15-Oct-18 16:48 39.682693 -112.474213 178 13973ft 174kts
15-Oct-18 16:49 39.634441 -112.477593 179 13076ft 175kts
15-Oct-18 16:50 39.586050 -112.479720 174 12089ft 170kts
15-Oct-18 16:51 39.539642 -112.475360 170 11456ft 174kts
15-Oct-18 16:52 39.492679 -112.464661 162 11621ft 173kts
15-Oct-18 16:53 39.445436 -112.450356 161 11630ft 174kts
15-Oct-18 16:54 39.397826 -112.453254 195 11651ft 182kts
15-Oct-18 16:55 39.350696 -112.478342 201 11597ft 187kts
15-Oct-18 16:56 39.303628 -112.503779 197 11260ft 182kts
15-Oct-18 16:57 39.250034 -112.533765 196 10436ft 182kts
15-Oct-18 16:58 39.211362 -112.553588 201 9726ft 178kts
15-Oct-18 16:59 39.171295 -112.587640 244 8824ft 179kts
15-Oct-18 17:00 39.141623 -112.623445 142 8220ft 158kts
15-Oct-18 17:01 39.158168 -112.587093 30 7580ft 145kts
15-Oct-18 17:02 39.194161 -112.563856 23 6857ft 144kts
15-Oct-18 17:03 39.233289 -112.544313 24 6312ft 152kts
15-Oct-18 17:04 39.270064 -112.524101 24 6231ft 132kts
15-Oct-18 17:05 39.302514 -112.507310 6 6013ft 121kts
15-Oct-18 17:06 39.335392 -112.503279 6 5542ft 118kts
15-Oct-18 17:07 39.367814 -112.502210 357 4954ft 118kts
15-Oct-18 17:08 39.387427 -112.502198 358 4759ft 34kts
15-Oct-18 17:09 39.389910 -112.503784 225 4759ft 17kts
15-Oct-18 17:10 39.386290 -112.508492 224 4759ft 25kts
15-Oct-18 17:11 39.385353 -112.512532 312 4759ft 11kts
15-Oct-18 17:12 39.386638 -112.514033 34 4759ft 1kts

Navigation Log

Ident Type
Flight plan parsing failed, navigation log unavailable